Time;durP1;ratioP1;P1;durP2;ratioP2;P2;SDS_P1;SDS_P2;PMS_P1;PMS_P2;Temp;Humidity;BMP_temperature;BMP_pressure;BME280_temperature;BME280_humidity;BME280_pressure;Samples;Min_cycle;Max_cycle;Signal;HPM_P1;HPM_P2
2023/05/01 00:09:21;;;;;;;40.20;26.40;;;;;;;1.33;69.32;100044.61;436832;1253;140450;-67
2023/05/01 00:19:27;;;;;;;45.10;27.70;;;;;;;1.23;69.85;100048.41;437143;1256;139916;-67
2023/05/01 00:29:33;;;;;;;39.40;26.10;;;;;;;1.10;69.87;100047.08;436955;1254;139900;-67
2023/05/01 00:39:39;;;;;;;29.00;20.10;;;;;;;1.00;70.42;100046.73;436571;1251;139722;-68
2023/05/01 00:49:46;;;;;;;44.40;24.70;;;;;;;0.87;70.75;100047.47;437012;1251;140944;-67
2023/05/01 00:59:51;;;;;;;52.40;32.00;;;;;;;0.77;70.87;100039.89;436201;1256;140194;-59
2023/05/01 01:10:09;;;;;;;57.50;34.60;;;;;;;0.68;71.57;100039.69;436671;1255;140148;-67
2023/05/01 01:20:45;;;;;;;59.40;34.40;;;;;;;0.60;71.83;100037.05;436375;1256;139870;-64
2023/05/01 01:31:11;;;;;;;53.20;33.50;;;;;;;0.49;72.02;100032.05;436572;1256;140785;-67
2023/05/01 01:41:19;;;;;;;;;;;;;;;0.35;72.24;100028.46;435906;1251;139341;-67
2023/05/01 01:51:28;;;;;;;50.30;29.80;;;;;;;0.29;72.90;100029.77;438169;1253;127066;-68
2023/05/01 02:01:37;;;;;;;38.70;28.30;;;;;;;0.41;74.40;100028.56;436968;1255;140046;-66
2023/05/01 02:11:43;;;;;;;49.10;32.00;;;;;;;0.32;73.86;100026.11;436418;1254;139310;-67
2023/05/01 02:21:50;;;;;;;43.10;30.20;;;;;;;0.12;73.49;100027.92;436174;1251;139681;-67
2023/05/01 02:31:56;;;;;;;35.40;24.90;;;;;;;-0.01;74.15;100020.89;436910;1254;139415;-66
2023/05/01 02:42:03;;;;;;;45.20;28.40;;;;;;;-0.05;74.90;100020.08;436167;1251;140373;-67
2023/05/01 02:52:10;;;;;;;34.30;24.80;;;;;;;-0.11;75.36;100014.13;436233;1252;140103;-66
2023/05/01 03:02:16;;;;;;;45.00;25.20;;;;;;;-0.25;75.23;100011.38;436418;1254;140575;-67
2023/05/01 03:12:21;;;;;;;34.80;24.20;;;;;;;-0.32;75.55;100016.11;436424;1251;141109;-67
2023/05/01 03:22:31;;;;;;;33.20;23.60;;;;;;;-0.31;75.93;100021.95;436631;1254;139391;-67
2023/05/01 03:32:37;;;;;;;30.60;21.50;;;;;;;-0.09;77.11;100020.98;437237;1254;139432;-67
2023/05/01 03:42:43;;;;;;;27.30;20.30;;;;;;;0.12;76.48;100016.22;436619;1254;139420;-67
2023/05/01 03:52:49;;;;;;;22.50;17.50;;;;;;;0.38;76.50;100013.95;436176;1254;140762;-65
2023/05/01 04:02:55;;;;;;;23.10;15.30;;;;;;;0.80;76.74;100010.36;436130;1254;140230;-65
2023/05/01 04:13:00;;;;;;;;;;;;;;;1.26;76.24;100010.58;436394;1251;139658;-66
2023/05/01 04:23:06;;;;;;;14.60;9.90;;;;;;;1.82;76.06;100006.34;436145;1254;127271;-66
2023/05/01 04:33:12;;;;;;;13.80;9.70;;;;;;;2.66;75.13;100005.66;436063;1254;140148;-66
2023/05/01 04:43:18;;;;;;;12.60;8.30;;;;;;;3.49;73.26;100007.31;436765;1251;139172;-67
2023/05/01 04:53:23;;;;;;;14.70;8.20;;;;;;;4.21;71.63;100009.53;436202;1254;139363;-66
2023/05/01 05:03:29;;;;;;;13.90;8.50;;;;;;;5.69;71.02;100010.84;436064;1251;140912;-66
2023/05/01 05:13:35;;;;;;;9.70;7.60;;;;;;;15.92;62.87;99997.65;436274;1251;140869;-66
2023/05/01 05:23:41;;;;;;;10.90;8.60;;;;;;;22.93;45.95;99983.02;436339;1251;139021;-66
2023/05/01 05:33:46;;;;;;;10.80;8.00;;;;;;;26.96;38.71;99977.18;436549;1251;139484;-66
2023/05/01 05:43:53;;;;;;;8.30;6.80;;;;;;;30.82;32.88;99970.02;436351;1254;139761;-67
2023/05/01 05:53:58;;;;;;;8.50;7.30;;;;;;;33.80;28.30;99956.05;436769;1250;139400;-66
2023/05/01 06:04:04;;;;;;;8.50;7.60;;;;;;;37.10;24.99;99950.08;436358;1254;138774;-66
2023/05/01 06:14:11;;;;;;;7.00;6.30;;;;;;;39.56;22.13;99943.48;437386;1250;139038;-66
2023/05/01 06:24:17;;;;;;;9.00;6.50;;;;;;;40.35;19.99;99944.13;436141;1254;138548;-67
2023/05/01 06:34:22;;;;;;;8.10;6.00;;;;;;;41.35;18.54;99946.64;436099;1251;139397;-66
2023/05/01 06:44:28;;;;;;;7.50;6.50;;;;;;;42.60;17.29;99942.61;436074;1251;139401;-66
2023/05/01 06:54:37;;;;;;;7.20;5.30;;;;;;;42.68;16.18;99939.79;436217;1254;139090;-66
2023/05/01 07:04:44;;;;;;;5.70;5.20;;;;;;;43.33;15.57;99933.39;436219;1252;138677;-64
2023/05/01 07:14:50;;;;;;;4.90;4.00;;;;;;;44.01;14.64;99930.88;437565;1250;138826;-66
2023/05/01 07:24:55;;;;;;;5.10;4.60;;;;;;;45.79;13.92;99929.84;436330;1254;138337;-67
2023/05/01 07:35:02;;;;;;;5.50;4.60;;;;;;;46.33;13.25;99933.77;436672;1251;139384;-68
2023/05/01 07:45:10;;;;;;;4.90;4.50;;;;;;;47.14;12.92;99933.29;436258;1253;139171;-67
2023/05/01 07:55:18;;;;;;;4.90;4.50;;;;;;;48.30;12.14;99932.17;436339;1251;139007;-67
2023/05/01 08:05:23;;;;;;;5.00;4.60;;;;;;;49.04;11.90;99929.37;436673;1253;139226;-66
2023/05/01 08:15:29;;;;;;;3.90;3.20;;;;;;;46.90;11.48;99924.09;436123;1254;138422;-66
2023/05/01 08:25:35;;;;;;;5.00;2.70;;;;;;;37.50;13.54;99921.02;436442;1250;138416;-67
2023/05/01 08:35:41;;;;;;;3.90;2.10;;;;;;;30.29;15.97;99924.41;436210;1251;138749;-67
2023/05/01 08:45:49;;;;;;;3.70;2.60;;;;;;;26.33;17.93;99931.59;436216;1254;138859;-67
2023/05/01 08:55:58;;;;;;;4.50;2.90;;;;;;;23.97;19.86;99933.70;437373;1254;138423;-67
2023/05/01 09:06:06;;;;;;;4.00;3.20;;;;;;;22.49;21.23;99927.65;436799;1251;138648;-65
2023/05/01 09:16:12;;;;;;;5.50;3.60;;;;;;;21.22;22.64;99920.48;437719;1251;138935;-67
2023/05/01 09:26:18;;;;;;;4.80;3.20;;;;;;;20.68;23.42;99913.88;436306;1254;139478;-67
2023/05/01 09:36:25;;;;;;;7.60;4.50;;;;;;;19.67;24.33;99912.05;436511;1250;139024;-67
2023/05/01 09:46:43;;;;;;;5.10;2.60;;;;;;;18.60;25.56;99911.28;436660;1251;141305;-66
2023/05/01 09:56:50;;;;;;;3.80;3.10;;;;;;;17.99;26.66;99906.13;436675;1251;140102;-67
2023/05/01 10:06:56;;;;;;;4.40;2.80;;;;;;;17.11;27.23;99901.10;436448;1254;139071;-67
2023/05/01 10:17:16;;;;;;;4.20;2.80;;;;;;;16.82;27.68;99897.52;436484;1254;138981;-66
2023/05/01 10:27:26;;;;;;;4.50;2.80;;;;;;;16.27;28.17;99890.25;436715;1250;138870;-68
2023/05/01 10:37:38;;;;;;;5.80;3.70;;;;;;;15.98;28.40;99873.87;437003;1250;139478;-67
2023/05/01 10:47:47;;;;;;;5.20;3.00;;;;;;;15.40;28.78;99868.11;436613;1254;138754;-67
2023/05/01 10:57:54;;;;;;;5.00;3.40;;;;;;;15.02;29.61;99859.09;436894;1254;138992;-66
2023/05/01 11:08:32;;;;;;;4.90;2.70;;;;;;;15.05;30.06;99848.80;437042;1251;138465;-68
2023/05/01 11:18:47;;;;;;;7.60;3.80;;;;;;;14.87;30.96;99843.17;436557;1250;138348;-66
2023/05/01 11:28:57;;;;;;;3.70;2.40;;;;;;;14.84;31.39;99826.95;436490;1250;141218;-66
2023/05/01 11:39:03;;;;;;;5.40;3.70;;;;;;;14.89;31.48;99808.61;437861;1250;139333;-66
2023/05/01 11:49:09;;;;;;;5.70;2.70;;;;;;;14.94;31.64;99798.52;436630;1251;139362;-67
2023/05/01 11:59:16;;;;;;;4.50;2.10;;;;;;;15.08;31.29;99783.18;436532;1250;138973;-67
2023/05/01 12:09:25;;;;;;;3.60;2.30;;;;;;;15.11;31.45;99763.30;436697;1254;139653;-67
2023/05/01 12:19:32;;;;;;;4.30;2.50;;;;;;;15.37;31.32;99755.15;436768;1251;140179;-67
2023/05/01 12:29:46;;;;;;;4.80;2.50;;;;;;;15.62;31.19;99737.36;437011;1253;139557;-68
2023/05/01 12:39:51;;;;;;;6.50;5.10;;;;;;;15.58;30.32;99732.05;436626;1250;138816;-66
2023/05/01 12:50:04;;;;;;;3.20;2.70;;;;;;;15.54;30.67;99715.58;436346;1254;138867;-66
2023/05/01 13:00:12;;;;;;;2.20;1.90;;;;;;;15.56;30.52;99697.59;437271;1254;139299;-67
2023/05/01 13:10:31;;;;;;;6.30;1.90;;;;;;;15.67;30.17;99679.06;440162;1250;139714;-67
2023/05/01 13:20:37;;;;;;;5.10;2.20;;;;;;;15.82;30.09;99668.29;452607;1250;138992;-68
2023/05/01 13:30:44;;;;;;;3.90;2.00;;;;;;;16.03;30.50;99656.89;442241;1250;138305;-66
2023/05/01 13:40:50;;;;;;;2.40;2.00;;;;;;;16.19;30.22;99642.95;436229;1254;138937;-71
2023/05/01 13:50:56;;;;;;;3.80;1.70;;;;;;;16.25;29.77;99634.62;436097;1250;139692;-67
2023/05/01 14:01:02;;;;;;;1.80;1.30;;;;;;;16.41;28.92;99619.69;436828;1251;138453;-68
2023/05/01 14:11:10;;;;;;;6.00;3.30;;;;;;;16.45;28.51;99607.86;436689;1251;139136;-66
2023/05/01 14:21:17;;;;;;;3.60;2.20;;;;;;;16.40;28.10;99595.95;437091;1254;138508;-68
2023/05/01 14:31:28;;;;;;;1.80;1.50;;;;;;;16.45;28.49;99583.11;436778;1254;139259;-66
2023/05/01 14:41:37;;;;;;;4.20;2.40;;;;;;;16.56;28.81;99576.66;436768;1254;138667;-67
2023/05/01 14:51:43;;;;;;;4.40;2.30;;;;;;;16.64;28.47;99563.56;436976;1254;138518;-67
2023/05/01 15:01:49;;;;;;;3.00;2.30;;;;;;;16.68;28.16;99551.90;436525;1251;139043;-67
2023/05/01 15:11:55;;;;;;;5.60;2.90;;;;;;;16.73;28.12;99544.89;436322;1250;139398;-65
2023/05/01 15:22:02;;;;;;;5.80;2.10;;;;;;;16.80;27.62;99544.42;436369;1251;139362;-66
2023/05/01 15:32:08;;;;;;;3.70;2.70;;;;;;;16.87;28.04;99533.80;436891;1254;139657;-67
2023/05/01 15:42:17;;;;;;;3.90;2.00;;;;;;;16.85;27.90;99520.85;436915;1255;139725;-66
2023/05/01 15:52:23;;;;;;;2.30;1.70;;;;;;;16.80;28.00;99510.68;436532;1250;140865;-67
2023/05/01 16:02:32;;;;;;;4.60;2.20;;;;;;;16.73;28.32;99502.51;436388;1251;138523;-66
2023/05/01 16:12:38;;;;;;;4.20;2.00;;;;;;;16.61;28.39;99499.86;438849;1255;138471;-67
2023/05/01 16:22:44;;;;;;;3.40;1.80;;;;;;;16.50;28.60;99494.16;436509;1255;138976;-67
2023/05/01 16:32:50;;;;;;;2.50;2.10;;;;;;;16.41;29.25;99488.55;436563;1254;139531;-65
2023/05/01 16:42:59;;;;;;;1.60;1.00;;;;;;;16.35;29.53;99483.31;437038;1254;139514;-67
2023/05/01 16:53:05;;;;;;;2.40;1.60;;;;;;;16.25;29.66;99479.11;437174;1251;139333;-66
2023/05/01 17:03:11;;;;;;;3.90;2.60;;;;;;;16.00;30.00;99480.91;436382;1251;138411;-67
2023/05/01 17:13:17;;;;;;;3.50;2.20;;;;;;;15.71;30.35;99477.81;436593;1251;140304;-67
2023/05/01 17:23:26;;;;;;;4.10;2.50;;;;;;;15.39;30.50;99474.51;436167;1251;140302;-66
2023/05/01 17:33:32;;;;;;;4.60;2.40;;;;;;;15.16;30.69;99476.23;437050;1255;140040;-67
2023/05/01 17:43:38;;;;;;;5.80;3.60;;;;;;;14.87;31.47;99472.55;436621;1254;139504;-66
2023/05/01 17:53:44;;;;;;;5.30;3.30;;;;;;;14.45;32.38;99468.33;436433;1254;139993;-65
2023/05/01 18:03:50;;;;;;;7.70;3.90;;;;;;;14.00;33.10;99476.73;436644;1251;139132;-66
2023/05/01 18:13:56;;;;;;;9.20;4.80;;;;;;;13.58;34.08;99474.73;436500;1251;138725;-67
2023/05/01 18:24:02;;;;;;;5.90;4.80;;;;;;;13.21;35.15;99471.78;436429;1253;138467;-67
2023/05/01 18:34:09;;;;;;;8.30;6.30;;;;;;;12.89;35.99;99465.90;436530;1253;139143;-69
2023/05/01 18:44:14;;;;;;;8.00;5.60;;;;;;;12.59;36.47;99455.83;436742;1253;138457;-68
2023/05/01 18:54:21;;;;;;;12.00;9.70;;;;;;;12.32;36.92;99461.66;436455;1251;138805;-67
2023/05/01 19:04:29;;;;;;;10.00;6.30;;;;;;;12.06;37.15;99464.48;436628;1256;140537;-67
2023/05/01 19:14:34;;;;;;;11.50;6.10;;;;;;;11.69;37.64;99470.53;436458;1253;139116;-66
2023/05/01 19:24:41;;;;;;;8.50;5.60;;;;;;;11.40;38.46;99473.94;436554;1251;141023;-66
2023/05/01 19:34:47;;;;;;;10.70;6.80;;;;;;;11.17;39.30;99472.70;436777;1251;139008;-67
2023/05/01 19:44:53;;;;;;;13.00;7.80;;;;;;;10.94;40.04;99477.00;436681;1255;139371;-68
2023/05/01 19:55:01;;;;;;;10.90;7.40;;;;;;;10.66;40.49;99477.11;436739;1254;138579;-68
2023/05/01 20:05:08;;;;;;;14.40;8.10;;;;;;;10.43;41.19;99473.17;436528;1254;139635;-67
2023/05/01 20:15:14;;;;;;;14.70;8.70;;;;;;;10.26;42.15;99469.70;436887;1256;139171;-67
2023/05/01 20:25:20;;;;;;;18.00;10.30;;;;;;;10.08;42.42;99461.95;436699;1255;139361;-67
2023/05/01 20:35:27;;;;;;;13.50;8.70;;;;;;;9.86;42.78;99456.67;436666;1253;140570;-67
2023/05/01 20:45:33;;;;;;;12.90;7.70;;;;;;;9.73;43.26;99450.61;436487;1252;139639;-66
2023/05/01 20:55:38;;;;;;;11.70;7.50;;;;;;;9.63;43.38;99457.05;436684;1251;139902;-68
2023/05/01 21:05:44;;;;;;;11.10;7.00;;;;;;;9.48;43.74;99456.37;436829;1254;138506;-67
2023/05/01 21:15:50;;;;;;;9.00;7.30;;;;;;;9.40;44.03;99457.23;436966;1251;139431;-67
2023/05/01 21:25:56;;;;;;;8.50;6.40;;;;;;;9.38;44.26;99462.73;436721;1257;138250;-66
2023/05/01 21:36:02;;;;;;;10.10;6.40;;;;;;;9.35;44.40;99464.68;436757;1251;140571;-67
2023/05/01 21:46:14;;;;;;;9.30;5.90;;;;;;;9.28;45.04;99466.53;437417;1251;138774;-67
2023/05/01 21:56:22;;;;;;;11.00;6.60;;;;;;;9.23;45.28;99465.06;437190;1254;138290;-66
2023/05/01 22:06:28;;;;;;;10.20;4.90;;;;;;;9.14;45.46;99460.52;437131;1254;138860;-66
2023/05/01 22:16:34;;;;;;;10.10;5.40;;;;;;;9.07;45.88;99449.95;436770;1254;141584;-66
2023/05/01 22:26:40;;;;;;;5.30;4.30;;;;;;;9.00;46.26;99442.86;436504;1254;139858;-66
2023/05/01 22:36:46;;;;;;;6.60;4.70;;;;;;;8.91;46.55;99440.75;436762;1252;138838;-67
2023/05/01 22:46:52;;;;;;;7.40;4.10;;;;;;;8.84;46.67;99441.36;436181;1254;138502;-67
2023/05/01 22:56:58;;;;;;;6.90;4.30;;;;;;;8.78;46.96;99435.92;436307;1254;139429;-67
2023/05/01 23:07:04;;;;;;;9.60;4.00;;;;;;;8.64;47.30;99437.64;436233;1251;138545;-65
2023/05/01 23:17:10;;;;;;;8.60;4.60;;;;;;;8.56;47.54;99435.48;436292;1254;138885;-67
2023/05/01 23:27:16;;;;;;;7.20;4.60;;;;;;;8.51;47.99;99428.77;436154;1251;139278;-67
2023/05/01 23:37:22;;;;;;;7.30;4.10;;;;;;;8.43;48.28;99420.63;437938;1254;138535;-65
2023/05/01 23:47:29;;;;;;;5.90;4.00;;;;;;;8.36;48.73;99415.65;436129;1254;141077;-67
2023/05/01 23:57:35;;;;;;;6.60;3.70;;;;;;;8.35;48.86;99412.76;436827;1254;139078;-67
